sensor_id;sensor_type;location;lat;lon;timestamp;temperature;humidity
10263;DHT22;5177;50.068;8.156;2023-05-07T00:01:41;16.20;99.90
10263;DHT22;5177;50.068;8.156;2023-05-07T00:04:06;16.20;99.90
10263;DHT22;5177;50.068;8.156;2023-05-07T00:06:32;16.20;99.90
10263;DHT22;5177;50.068;8.156;2023-05-07T00:08:58;16.20;99.90
10263;DHT22;5177;50.068;8.156;2023-05-07T00:11:23;16.20;99.90
10263;DHT22;5177;50.068;8.156;2023-05-07T00:13:49;16.20;99.90
10263;DHT22;5177;50.068;8.156;2023-05-07T00:16:14;16.20;99.90
10263;DHT22;5177;50.068;8.156;2023-05-07T00:18:40;16.20;99.90
10263;DHT22;5177;50.068;8.156;2023-05-07T00:21:05;16.20;99.90
10263;DHT22;5177;50.068;8.156;2023-05-07T00:23:31;16.20;99.90
10263;DHT22;5177;50.068;8.156;2023-05-07T00:25:56;16.20;99.90
10263;DHT22;5177;50.068;8.156;2023-05-07T00:28:22;16.20;99.90
10263;DHT22;5177;50.068;8.156;2023-05-07T00:30:47;16.20;99.90
10263;DHT22;5177;50.068;8.156;2023-05-07T00:33:13;16.20;99.90
10263;DHT22;5177;50.068;8.156;2023-05-07T00:35:38;16.10;99.90
10263;DHT22;5177;50.068;8.156;2023-05-07T00:38:04;16.10;99.90
10263;DHT22;5177;50.068;8.156;2023-05-07T00:40:29;16.10;99.90
10263;DHT22;5177;50.068;8.156;2023-05-07T00:42:55;16.00;99.90
10263;DHT22;5177;50.068;8.156;2023-05-07T00:45:25;16.00;99.90
10263;DHT22;5177;50.068;8.156;2023-05-07T00:47:53;16.00;99.90
10263;DHT22;5177;50.068;8.156;2023-05-07T00:50:19;15.90;99.90
10263;DHT22;5177;50.068;8.156;2023-05-07T00:52:45;15.90;99.90
10263;DHT22;5177;50.068;8.156;2023-05-07T00:55:10;15.90;99.90
10263;DHT22;5177;50.068;8.156;2023-05-07T00:57:37;15.90;99.90
10263;DHT22;5177;50.068;8.156;2023-05-07T01:00:03;15.90;99.90
10263;DHT22;5177;50.068;8.156;2023-05-07T01:02:29;15.90;99.90
10263;DHT22;5177;50.068;8.156;2023-05-07T01:04:55;15.90;99.90
10263;DHT22;5177;50.068;8.156;2023-05-07T01:07:20;15.90;99.90
10263;DHT22;5177;50.068;8.156;2023-05-07T01:09:46;15.90;99.90
10263;DHT22;5177;50.068;8.156;2023-05-07T01:12:11;15.90;99.90
10263;DHT22;5177;50.068;8.156;2023-05-07T01:14:37;15.90;99.90
10263;DHT22;5177;50.068;8.156;2023-05-07T01:17:03;15.80;99.90
10263;DHT22;5177;50.068;8.156;2023-05-07T01:19:28;15.90;99.90
10263;DHT22;5177;50.068;8.156;2023-05-07T01:24:41;15.80;99.90
10263;DHT22;5177;50.068;8.156;2023-05-07T01:27:07;15.80;99.90
10263;DHT22;5177;50.068;8.156;2023-05-07T01:29:33;15.80;99.90
10263;DHT22;5177;50.068;8.156;2023-05-07T01:31:59;15.80;99.90
10263;DHT22;5177;50.068;8.156;2023-05-07T01:34:25;15.90;99.90
10263;DHT22;5177;50.068;8.156;2023-05-07T01:36:53;15.80;99.90
10263;DHT22;5177;50.068;8.156;2023-05-07T01:39:20;15.80;99.90
10263;DHT22;5177;50.068;8.156;2023-05-07T01:41:46;15.80;99.90
10263;DHT22;5177;50.068;8.156;2023-05-07T01:44:12;15.90;99.90
10263;DHT22;5177;50.068;8.156;2023-05-07T01:46:38;15.80;99.90
10263;DHT22;5177;50.068;8.156;2023-05-07T01:49:03;15.90;99.90
10263;DHT22;5177;50.068;8.156;2023-05-07T01:54:32;15.80;99.90
10263;DHT22;5177;50.068;8.156;2023-05-07T01:56:57;15.80;99.90
10263;DHT22;5177;50.068;8.156;2023-05-07T01:59:23;15.80;99.90
10263;DHT22;5177;50.068;8.156;2023-05-07T02:01:48;15.80;99.90
10263;DHT22;5177;50.068;8.156;2023-05-07T02:04:14;15.80;99.90
10263;DHT22;5177;50.068;8.156;2023-05-07T02:06:39;15.80;99.90
10263;DHT22;5177;50.068;8.156;2023-05-07T02:09:05;15.80;99.90
10263;DHT22;5177;50.068;8.156;2023-05-07T02:11:30;15.70;99.90
10263;DHT22;5177;50.068;8.156;2023-05-07T02:13:56;15.70;99.90
10263;DHT22;5177;50.068;8.156;2023-05-07T02:16:21;15.70;99.90
10263;DHT22;5177;50.068;8.156;2023-05-07T02:18:48;15.80;99.90
10263;DHT22;5177;50.068;8.156;2023-05-07T02:21:13;15.70;99.90
10263;DHT22;5177;50.068;8.156;2023-05-07T02:23:39;15.80;99.90
10263;DHT22;5177;50.068;8.156;2023-05-07T02:26:05;15.80;99.90
10263;DHT22;5177;50.068;8.156;2023-05-07T02:28:30;15.70;99.90
10263;DHT22;5177;50.068;8.156;2023-05-07T02:30:56;15.70;99.90
10263;DHT22;5177;50.068;8.156;2023-05-07T02:33:23;15.80;99.90
10263;DHT22;5177;50.068;8.156;2023-05-07T02:35:49;15.70;99.90
10263;DHT22;5177;50.068;8.156;2023-05-07T02:38:14;15.80;99.90
10263;DHT22;5177;50.068;8.156;2023-05-07T02:40:40;15.80;99.90
10263;DHT22;5177;50.068;8.156;2023-05-07T02:43:05;15.80;99.90
10263;DHT22;5177;50.068;8.156;2023-05-07T02:45:32;15.70;99.90
10263;DHT22;5177;50.068;8.156;2023-05-07T02:47:57;15.70;99.90
10263;DHT22;5177;50.068;8.156;2023-05-07T02:50:23;15.70;99.90
10263;DHT22;5177;50.068;8.156;2023-05-07T02:52:49;15.70;99.90
10263;DHT22;5177;50.068;8.156;2023-05-07T02:55:14;15.70;99.90
10263;DHT22;5177;50.068;8.156;2023-05-07T02:57:40;15.70;99.90
10263;DHT22;5177;50.068;8.156;2023-05-07T03:00:15;15.70;99.90
10263;DHT22;5177;50.068;8.156;2023-05-07T03:02:41;15.70;99.90
10263;DHT22;5177;50.068;8.156;2023-05-07T03:05:06;15.70;99.90
10263;DHT22;5177;50.068;8.156;2023-05-07T03:07:32;15.80;99.90
10263;DHT22;5177;50.068;8.156;2023-05-07T03:09:57;15.80;99.90
10263;DHT22;5177;50.068;8.156;2023-05-07T03:12:23;15.80;99.90
10263;DHT22;5177;50.068;8.156;2023-05-07T03:14:48;15.80;99.90
10263;DHT22;5177;50.068;8.156;2023-05-07T03:17:14;15.70;99.90
10263;DHT22;5177;50.068;8.156;2023-05-07T03:19:41;15.70;99.90
10263;DHT22;5177;50.068;8.156;2023-05-07T03:22:06;15.70;99.90
10263;DHT22;5177;50.068;8.156;2023-05-07T03:24:32;15.70;99.90
10263;DHT22;5177;50.068;8.156;2023-05-07T03:26:57;15.70;99.90
10263;DHT22;5177;50.068;8.156;2023-05-07T03:29:23;15.60;99.90
10263;DHT22;5177;50.068;8.156;2023-05-07T03:31:48;15.60;99.90
10263;DHT22;5177;50.068;8.156;2023-05-07T03:34:14;15.60;99.90
10263;DHT22;5177;50.068;8.156;2023-05-07T03:36:40;15.60;99.90
10263;DHT22;5177;50.068;8.156;2023-05-07T03:39:06;15.60;99.90
10263;DHT22;5177;50.068;8.156;2023-05-07T03:41:32;15.60;99.90
10263;DHT22;5177;50.068;8.156;2023-05-07T03:43:57;15.60;99.90
10263;DHT22;5177;50.068;8.156;2023-05-07T03:46:23;15.60;99.90
10263;DHT22;5177;50.068;8.156;2023-05-07T03:48:51;15.60;99.90
10263;DHT22;5177;50.068;8.156;2023-05-07T03:51:16;15.60;99.90
10263;DHT22;5177;50.068;8.156;2023-05-07T03:53:42;15.50;99.90
10263;DHT22;5177;50.068;8.156;2023-05-07T03:56:07;15.50;99.90
10263;DHT22;5177;50.068;8.156;2023-05-07T03:58:33;15.50;99.90
10263;DHT22;5177;50.068;8.156;2023-05-07T04:00:59;15.60;99.90
10263;DHT22;5177;50.068;8.156;2023-05-07T04:03:24;15.60;99.90
10263;DHT22;5177;50.068;8.156;2023-05-07T04:05:50;15.60;99.90
10263;DHT22;5177;50.068;8.156;2023-05-07T04:08:15;15.50;99.90
10263;DHT22;5177;50.068;8.156;2023-05-07T04:10:40;15.50;99.90
10263;DHT22;5177;50.068;8.156;2023-05-07T04:13:06;15.60;99.90
10263;DHT22;5177;50.068;8.156;2023-05-07T04:15:31;15.60;99.90
10263;DHT22;5177;50.068;8.156;2023-05-07T04:17:57;15.60;99.90
10263;DHT22;5177;50.068;8.156;2023-05-07T04:20:22;15.60;99.90
10263;DHT22;5177;50.068;8.156;2023-05-07T04:22:48;15.60;99.90
10263;DHT22;5177;50.068;8.156;2023-05-07T04:25:13;15.60;99.90
10263;DHT22;5177;50.068;8.156;2023-05-07T04:27:41;15.70;99.90
10263;DHT22;5177;50.068;8.156;2023-05-07T04:30:06;15.60;99.90
10263;DHT22;5177;50.068;8.156;2023-05-07T04:32:32;15.60;99.90
10263;DHT22;5177;50.068;8.156;2023-05-07T04:34:57;15.70;99.90
10263;DHT22;5177;50.068;8.156;2023-05-07T04:37:23;15.60;99.90
10263;DHT22;5177;50.068;8.156;2023-05-07T04:39:48;15.60;99.90
10263;DHT22;5177;50.068;8.156;2023-05-07T04:42:14;15.70;99.90
10263;DHT22;5177;50.068;8.156;2023-05-07T04:44:40;15.70;99.90
10263;DHT22;5177;50.068;8.156;2023-05-07T04:47:06;15.70;99.90
10263;DHT22;5177;50.068;8.156;2023-05-07T04:49:31;15.70;99.90
10263;DHT22;5177;50.068;8.156;2023-05-07T04:51:57;15.70;99.90
10263;DHT22;5177;50.068;8.156;2023-05-07T04:54:22;15.70;99.90
10263;DHT22;5177;50.068;8.156;2023-05-07T04:56:48;15.70;99.90
10263;DHT22;5177;50.068;8.156;2023-05-07T04:59:13;15.80;99.90
10263;DHT22;5177;50.068;8.156;2023-05-07T05:01:39;15.80;99.90
10263;DHT22;5177;50.068;8.156;2023-05-07T05:04:05;15.90;99.90
10263;DHT22;5177;50.068;8.156;2023-05-07T05:06:31;15.90;99.90
10263;DHT22;5177;50.068;8.156;2023-05-07T05:08:56;15.90;99.90
10263;DHT22;5177;50.068;8.156;2023-05-07T05:11:22;16.00;99.90
10263;DHT22;5177;50.068;8.156;2023-05-07T05:13:47;16.10;99.90
10263;DHT22;5177;50.068;8.156;2023-05-07T05:16:14;16.10;99.90
10263;DHT22;5177;50.068;8.156;2023-05-07T05:18:40;16.10;99.90
10263;DHT22;5177;50.068;8.156;2023-05-07T05:21:06;16.10;99.90
10263;DHT22;5177;50.068;8.156;2023-05-07T05:23:31;16.10;99.90
10263;DHT22;5177;50.068;8.156;2023-05-07T05:25:57;16.20;99.90
10263;DHT22;5177;50.068;8.156;2023-05-07T05:28:23;16.20;99.90
10263;DHT22;5177;50.068;8.156;2023-05-07T05:30:48;16.30;99.90
10263;DHT22;5177;50.068;8.156;2023-05-07T05:33:14;16.30;99.90
10263;DHT22;5177;50.068;8.156;2023-05-07T05:35:40;16.40;99.90
10263;DHT22;5177;50.068;8.156;2023-05-07T05:38:05;16.40;99.90
10263;DHT22;5177;50.068;8.156;2023-05-07T05:40:31;16.40;99.90
10263;DHT22;5177;50.068;8.156;2023-05-07T05:42:56;16.50;99.90
10263;DHT22;5177;50.068;8.156;2023-05-07T05:45:22;16.50;99.90
10263;DHT22;5177;50.068;8.156;2023-05-07T05:47:47;16.60;99.90
10263;DHT22;5177;50.068;8.156;2023-05-07T05:50:13;16.50;99.90
10263;DHT22;5177;50.068;8.156;2023-05-07T05:52:38;16.70;99.90
10263;DHT22;5177;50.068;8.156;2023-05-07T05:55:04;16.70;99.90
10263;DHT22;5177;50.068;8.156;2023-05-07T05:57:29;16.60;99.90
10263;DHT22;5177;50.068;8.156;2023-05-07T05:59:55;16.60;99.90
10263;DHT22;5177;50.068;8.156;2023-05-07T06:02:21;16.70;99.90
10263;DHT22;5177;50.068;8.156;2023-05-07T06:04:46;16.70;99.90
10263;DHT22;5177;50.068;8.156;2023-05-07T06:07:12;16.70;99.90
10263;DHT22;5177;50.068;8.156;2023-05-07T06:09:37;16.70;99.90
10263;DHT22;5177;50.068;8.156;2023-05-07T06:12:03;16.80;99.90
10263;DHT22;5177;50.068;8.156;2023-05-07T06:14:28;16.90;99.90
10263;DHT22;5177;50.068;8.156;2023-05-07T06:16:54;17.00;99.90
10263;DHT22;5177;50.068;8.156;2023-05-07T06:19:19;17.10;99.90
10263;DHT22;5177;50.068;8.156;2023-05-07T06:21:48;17.30;99.90
10263;DHT22;5177;50.068;8.156;2023-05-07T06:24:14;17.40;99.90
10263;DHT22;5177;50.068;8.156;2023-05-07T06:26:39;17.50;99.90
10263;DHT22;5177;50.068;8.156;2023-05-07T06:29:05;17.60;99.90
10263;DHT22;5177;50.068;8.156;2023-05-07T06:31:31;17.70;99.90
10263;DHT22;5177;50.068;8.156;2023-05-07T06:33:57;17.90;99.90
10263;DHT22;5177;50.068;8.156;2023-05-07T06:36:22;18.00;99.90
10263;DHT22;5177;50.068;8.156;2023-05-07T06:38:48;18.10;99.90
10263;DHT22;5177;50.068;8.156;2023-05-07T06:41:13;18.20;99.90
10263;DHT22;5177;50.068;8.156;2023-05-07T06:43:39;18.20;99.90
10263;DHT22;5177;50.068;8.156;2023-05-07T06:46:04;18.30;99.90
10263;DHT22;5177;50.068;8.156;2023-05-07T06:48:30;18.30;99.90
10263;DHT22;5177;50.068;8.156;2023-05-07T06:50:56;18.30;99.90
10263;DHT22;5177;50.068;8.156;2023-05-07T06:53:23;18.40;99.90
10263;DHT22;5177;50.068;8.156;2023-05-07T06:55:48;18.40;99.90
10263;DHT22;5177;50.068;8.156;2023-05-07T06:58:14;18.40;99.90
10263;DHT22;5177;50.068;8.156;2023-05-07T07:00:39;18.50;99.90
10263;DHT22;5177;50.068;8.156;2023-05-07T07:03:06;18.40;99.90
10263;DHT22;5177;50.068;8.156;2023-05-07T07:05:32;18.40;99.90
10263;DHT22;5177;50.068;8.156;2023-05-07T07:07:57;18.40;99.90
10263;DHT22;5177;50.068;8.156;2023-05-07T07:10:23;18.40;99.90
10263;DHT22;5177;50.068;8.156;2023-05-07T07:12:49;18.40;99.90
10263;DHT22;5177;50.068;8.156;2023-05-07T07:15:14;18.40;99.90
10263;DHT22;5177;50.068;8.156;2023-05-07T07:17:40;18.40;99.90
10263;DHT22;5177;50.068;8.156;2023-05-07T07:20:06;18.40;99.90
10263;DHT22;5177;50.068;8.156;2023-05-07T07:22:31;18.40;99.90
10263;DHT22;5177;50.068;8.156;2023-05-07T07:24:57;18.30;99.90
10263;DHT22;5177;50.068;8.156;2023-05-07T07:27:22;18.40;99.90
10263;DHT22;5177;50.068;8.156;2023-05-07T07:29:48;18.50;99.90
10263;DHT22;5177;50.068;8.156;2023-05-07T07:32:14;18.40;99.90
10263;DHT22;5177;50.068;8.156;2023-05-07T07:34:39;18.40;99.90
10263;DHT22;5177;50.068;8.156;2023-05-07T07:37:05;18.40;99.90
10263;DHT22;5177;50.068;8.156;2023-05-07T07:39:31;18.40;99.90
10263;DHT22;5177;50.068;8.156;2023-05-07T07:41:57;18.30;99.90
10263;DHT22;5177;50.068;8.156;2023-05-07T07:44:23;18.30;99.90
10263;DHT22;5177;50.068;8.156;2023-05-07T07:46:48;18.30;99.90
10263;DHT22;5177;50.068;8.156;2023-05-07T07:49:14;18.30;99.90
10263;DHT22;5177;50.068;8.156;2023-05-07T07:51:40;18.40;99.90
10263;DHT22;5177;50.068;8.156;2023-05-07T07:54:06;18.40;99.90
10263;DHT22;5177;50.068;8.156;2023-05-07T07:56:32;18.50;99.90
10263;DHT22;5177;50.068;8.156;2023-05-07T07:58:58;18.50;99.90
10263;DHT22;5177;50.068;8.156;2023-05-07T08:01:23;18.50;99.90
10263;DHT22;5177;50.068;8.156;2023-05-07T08:03:49;18.60;99.90
10263;DHT22;5177;50.068;8.156;2023-05-07T08:06:15;18.60;99.90
10263;DHT22;5177;50.068;8.156;2023-05-07T08:08:41;18.60;99.90
10263;DHT22;5177;50.068;8.156;2023-05-07T08:11:06;18.70;99.90
10263;DHT22;5177;50.068;8.156;2023-05-07T08:13:32;18.80;99.90
10263;DHT22;5177;50.068;8.156;2023-05-07T08:15:58;18.80;99.90
10263;DHT22;5177;50.068;8.156;2023-05-07T08:18:24;18.80;99.90
10263;DHT22;5177;50.068;8.156;2023-05-07T08:20:50;19.20;99.90
10263;DHT22;5177;50.068;8.156;2023-05-07T08:23:16;19.20;99.90
10263;DHT22;5177;50.068;8.156;2023-05-07T08:25:41;19.30;99.90
10263;DHT22;5177;50.068;8.156;2023-05-07T08:28:08;19.40;99.90
10263;DHT22;5177;50.068;8.156;2023-05-07T08:30:33;19.40;99.90
10263;DHT22;5177;50.068;8.156;2023-05-07T08:32:59;19.30;99.90
10263;DHT22;5177;50.068;8.156;2023-05-07T08:35:25;19.30;99.90
10263;DHT22;5177;50.068;8.156;2023-05-07T08:37:52;19.40;99.90
10263;DHT22;5177;50.068;8.156;2023-05-07T08:40:18;19.50;99.90
10263;DHT22;5177;50.068;8.156;2023-05-07T08:42:43;19.70;99.90
10263;DHT22;5177;50.068;8.156;2023-05-07T08:45:09;19.70;99.90
10263;DHT22;5177;50.068;8.156;2023-05-07T08:47:44;19.80;99.90
10263;DHT22;5177;50.068;8.156;2023-05-07T08:50:11;20.00;99.90
10263;DHT22;5177;50.068;8.156;2023-05-07T08:52:37;20.10;99.90
10263;DHT22;5177;50.068;8.156;2023-05-07T08:55:02;20.30;99.90
10263;DHT22;5177;50.068;8.156;2023-05-07T08:57:28;20.40;99.90
10263;DHT22;5177;50.068;8.156;2023-05-07T08:59:55;20.40;99.90
10263;DHT22;5177;50.068;8.156;2023-05-07T09:02:21;20.70;99.90
10263;DHT22;5177;50.068;8.156;2023-05-07T09:04:46;20.80;99.90
10263;DHT22;5177;50.068;8.156;2023-05-07T09:07:12;20.90;99.90
10263;DHT22;5177;50.068;8.156;2023-05-07T09:09:38;20.90;99.90
10263;DHT22;5177;50.068;8.156;2023-05-07T09:12:03;21.10;99.90
10263;DHT22;5177;50.068;8.156;2023-05-07T09:14:29;21.20;99.90
10263;DHT22;5177;50.068;8.156;2023-05-07T09:16:55;21.20;99.90
10263;DHT22;5177;50.068;8.156;2023-05-07T09:19:24;21.30;99.90
10263;DHT22;5177;50.068;8.156;2023-05-07T09:21:57;21.30;99.90
10263;DHT22;5177;50.068;8.156;2023-05-07T09:24:23;21.40;99.90
10263;DHT22;5177;50.068;8.156;2023-05-07T09:26:49;21.50;99.90
10263;DHT22;5177;50.068;8.156;2023-05-07T09:29:15;21.60;99.90
10263;DHT22;5177;50.068;8.156;2023-05-07T09:31:41;21.90;99.90
10263;DHT22;5177;50.068;8.156;2023-05-07T09:34:06;22.00;99.90
10263;DHT22;5177;50.068;8.156;2023-05-07T09:36:33;21.90;99.90
10263;DHT22;5177;50.068;8.156;2023-05-07T09:39:01;21.90;99.90
10263;DHT22;5177;50.068;8.156;2023-05-07T09:41:27;22.00;99.90
10263;DHT22;5177;50.068;8.156;2023-05-07T09:43:55;21.90;99.90
10263;DHT22;5177;50.068;8.156;2023-05-07T09:46:23;21.90;99.90
10263;DHT22;5177;50.068;8.156;2023-05-07T09:48:50;22.00;99.90
10263;DHT22;5177;50.068;8.156;2023-05-07T09:51:30;21.80;99.90
10263;DHT22;5177;50.068;8.156;2023-05-07T09:53:59;21.80;99.90
10263;DHT22;5177;50.068;8.156;2023-05-07T09:56:27;21.90;99.90
10263;DHT22;5177;50.068;8.156;2023-05-07T09:58:54;21.80;99.90
10263;DHT22;5177;50.068;8.156;2023-05-07T10:01:21;21.90;99.90
10263;DHT22;5177;50.068;8.156;2023-05-07T10:03:47;22.00;99.90
10263;DHT22;5177;50.068;8.156;2023-05-07T10:06:13;22.00;99.90
10263;DHT22;5177;50.068;8.156;2023-05-07T10:08:39;21.90;99.90
10263;DHT22;5177;50.068;8.156;2023-05-07T10:11:05;21.90;99.90
10263;DHT22;5177;50.068;8.156;2023-05-07T10:13:33;22.20;99.90
10263;DHT22;5177;50.068;8.156;2023-05-07T10:16:03;22.50;99.90
10263;DHT22;5177;50.068;8.156;2023-05-07T10:18:30;23.00;99.90
10263;DHT22;5177;50.068;8.156;2023-05-07T10:21:02;23.30;99.90
10263;DHT22;5177;50.068;8.156;2023-05-07T10:23:29;23.80;99.90
10263;DHT22;5177;50.068;8.156;2023-05-07T10:25:56;24.00;99.90
10263;DHT22;5177;50.068;8.156;2023-05-07T10:28:23;24.10;99.90
10263;DHT22;5177;50.068;8.156;2023-05-07T10:33:27;24.10;99.90
10263;DHT22;5177;50.068;8.156;2023-05-07T10:35:55;24.10;99.90
10263;DHT22;5177;50.068;8.156;2023-05-07T10:38:22;24.10;99.90
10263;DHT22;5177;50.068;8.156;2023-05-07T10:40:48;24.10;99.90
10263;DHT22;5177;50.068;8.156;2023-05-07T10:43:15;24.00;99.90
10263;DHT22;5177;50.068;8.156;2023-05-07T10:45:41;24.20;99.90
10263;DHT22;5177;50.068;8.156;2023-05-07T10:48:13;24.30;99.90
10263;DHT22;5177;50.068;8.156;2023-05-07T10:50:40;24.30;99.90
10263;DHT22;5177;50.068;8.156;2023-05-07T10:55:43;24.70;99.90
10263;DHT22;5177;50.068;8.156;2023-05-07T10:58:22;24.60;99.90
10263;DHT22;5177;50.068;8.156;2023-05-07T11:00:48;24.50;99.90
10263;DHT22;5177;50.068;8.156;2023-05-07T11:03:14;24.60;99.90
10263;DHT22;5177;50.068;8.156;2023-05-07T11:05:40;24.50;99.90
10263;DHT22;5177;50.068;8.156;2023-05-07T11:08:06;24.40;99.90
10263;DHT22;5177;50.068;8.156;2023-05-07T11:10:53;24.40;99.90
10263;DHT22;5177;50.068;8.156;2023-05-07T11:13:18;24.40;99.90
10263;DHT22;5177;50.068;8.156;2023-05-07T11:15:47;24.40;99.90
10263;DHT22;5177;50.068;8.156;2023-05-07T11:18:14;24.50;99.90
10263;DHT22;5177;50.068;8.156;2023-05-07T11:26:05;25.00;99.90
10263;DHT22;5177;50.068;8.156;2023-05-07T11:28:37;25.00;99.90
10263;DHT22;5177;50.068;8.156;2023-05-07T11:31:03;25.20;99.90
10263;DHT22;5177;50.068;8.156;2023-05-07T11:33:29;25.20;99.90
10263;DHT22;5177;50.068;8.156;2023-05-07T11:35:55;25.20;99.90
10263;DHT22;5177;50.068;8.156;2023-05-07T11:38:21;25.40;99.90
10263;DHT22;5177;50.068;8.156;2023-05-07T11:40:50;25.50;99.90
10263;DHT22;5177;50.068;8.156;2023-05-07T11:43:16;25.80;99.90
10263;DHT22;5177;50.068;8.156;2023-05-07T11:45:41;25.80;99.90
10263;DHT22;5177;50.068;8.156;2023-05-07T11:48:07;25.70;99.90
10263;DHT22;5177;50.068;8.156;2023-05-07T11:50:32;25.90;99.90
10263;DHT22;5177;50.068;8.156;2023-05-07T11:52:58;26.00;99.90
10263;DHT22;5177;50.068;8.156;2023-05-07T11:55:24;26.30;99.90
10263;DHT22;5177;50.068;8.156;2023-05-07T11:57:50;26.30;99.90
10263;DHT22;5177;50.068;8.156;2023-05-07T12:00:16;26.40;99.90
10263;DHT22;5177;50.068;8.156;2023-05-07T12:02:41;26.50;99.90
10263;DHT22;5177;50.068;8.156;2023-05-07T12:05:07;26.60;99.90
10263;DHT22;5177;50.068;8.156;2023-05-07T12:07:33;26.80;99.90
10263;DHT22;5177;50.068;8.156;2023-05-07T12:09:59;26.80;99.90
10263;DHT22;5177;50.068;8.156;2023-05-07T12:12:25;26.80;99.90
10263;DHT22;5177;50.068;8.156;2023-05-07T12:14:52;26.80;99.90
10263;DHT22;5177;50.068;8.156;2023-05-07T12:17:17;26.70;99.90
10263;DHT22;5177;50.068;8.156;2023-05-07T12:19:43;26.60;99.90
10263;DHT22;5177;50.068;8.156;2023-05-07T12:22:09;26.50;99.90
10263;DHT22;5177;50.068;8.156;2023-05-07T12:24:45;26.50;99.90
10263;DHT22;5177;50.068;8.156;2023-05-07T12:27:11;26.30;99.90
10263;DHT22;5177;50.068;8.156;2023-05-07T12:29:37;26.30;99.90
10263;DHT22;5177;50.068;8.156;2023-05-07T12:32:06;26.40;99.90
10263;DHT22;5177;50.068;8.156;2023-05-07T12:34:31;26.40;99.90
10263;DHT22;5177;50.068;8.156;2023-05-07T12:36:57;26.60;99.90
10263;DHT22;5177;50.068;8.156;2023-05-07T12:39:22;26.80;99.90
10263;DHT22;5177;50.068;8.156;2023-05-07T12:44:23;27.10;99.90
10263;DHT22;5177;50.068;8.156;2023-05-07T12:46:49;27.30;99.90
10263;DHT22;5177;50.068;8.156;2023-05-07T12:49:15;27.40;99.90
10263;DHT22;5177;50.068;8.156;2023-05-07T12:51:40;27.50;99.90
10263;DHT22;5177;50.068;8.156;2023-05-07T12:54:06;27.50;99.90
10263;DHT22;5177;50.068;8.156;2023-05-07T12:56:32;27.50;99.90
10263;DHT22;5177;50.068;8.156;2023-05-07T12:59:00;27.40;99.90
10263;DHT22;5177;50.068;8.156;2023-05-07T13:01:29;27.20;99.90
10263;DHT22;5177;50.068;8.156;2023-05-07T13:03:58;27.00;99.90
10263;DHT22;5177;50.068;8.156;2023-05-07T13:06:25;27.10;99.90
10263;DHT22;5177;50.068;8.156;2023-05-07T13:08:51;27.20;99.90
10263;DHT22;5177;50.068;8.156;2023-05-07T13:11:17;27.10;99.90
10263;DHT22;5177;50.068;8.156;2023-05-07T13:13:42;27.30;99.90
10263;DHT22;5177;50.068;8.156;2023-05-07T13:16:08;27.50;99.90
10263;DHT22;5177;50.068;8.156;2023-05-07T13:18:34;27.70;98.20
10263;DHT22;5177;50.068;8.156;2023-05-07T13:21:00;28.00;96.30
10263;DHT22;5177;50.068;8.156;2023-05-07T13:23:26;28.20;94.90
10263;DHT22;5177;50.068;8.156;2023-05-07T13:25:52;28.40;92.50
10263;DHT22;5177;50.068;8.156;2023-05-07T13:28:19;28.40;95.30
10263;DHT22;5177;50.068;8.156;2023-05-07T13:30:46;28.60;93.70
10263;DHT22;5177;50.068;8.156;2023-05-07T13:33:11;28.70;93.50
10263;DHT22;5177;50.068;8.156;2023-05-07T13:35:37;28.80;92.80
10263;DHT22;5177;50.068;8.156;2023-05-07T13:38:03;28.80;92.10
10263;DHT22;5177;50.068;8.156;2023-05-07T13:40:28;28.90;89.50
10263;DHT22;5177;50.068;8.156;2023-05-07T13:42:54;29.00;91.50
10263;DHT22;5177;50.068;8.156;2023-05-07T13:45:19;29.20;86.20
10263;DHT22;5177;50.068;8.156;2023-05-07T13:47:45;29.10;84.00
10263;DHT22;5177;50.068;8.156;2023-05-07T13:50:11;29.10;82.60
10263;DHT22;5177;50.068;8.156;2023-05-07T13:52:37;29.20;86.60
10263;DHT22;5177;50.068;8.156;2023-05-07T13:55:02;29.40;80.00
10263;DHT22;5177;50.068;8.156;2023-05-07T13:57:28;29.10;73.80
10263;DHT22;5177;50.068;8.156;2023-05-07T13:59:53;29.10;71.80
10263;DHT22;5177;50.068;8.156;2023-05-07T14:02:19;29.00;72.80
10263;DHT22;5177;50.068;8.156;2023-05-07T14:04:45;29.10;70.60
10263;DHT22;5177;50.068;8.156;2023-05-07T14:07:10;29.30;63.10
10263;DHT22;5177;50.068;8.156;2023-05-07T14:09:36;29.30;56.70
10263;DHT22;5177;50.068;8.156;2023-05-07T14:12:01;29.30;57.90
10263;DHT22;5177;50.068;8.156;2023-05-07T14:14:27;29.20;59.00
10263;DHT22;5177;50.068;8.156;2023-05-07T14:16:52;29.30;62.70
10263;DHT22;5177;50.068;8.156;2023-05-07T14:19:18;29.60;62.60
10263;DHT22;5177;50.068;8.156;2023-05-07T14:21:43;29.70;58.40
10263;DHT22;5177;50.068;8.156;2023-05-07T14:24:09;29.80;56.30
10263;DHT22;5177;50.068;8.156;2023-05-07T14:26:35;29.60;54.50
10263;DHT22;5177;50.068;8.156;2023-05-07T14:29:00;29.20;56.80
10263;DHT22;5177;50.068;8.156;2023-05-07T14:31:26;28.80;56.80
10263;DHT22;5177;50.068;8.156;2023-05-07T14:33:51;28.40;61.60
10263;DHT22;5177;50.068;8.156;2023-05-07T14:36:17;28.00;60.20
10263;DHT22;5177;50.068;8.156;2023-05-07T14:38:45;27.70;68.90
10263;DHT22;5177;50.068;8.156;2023-05-07T14:41:11;27.50;65.30
10263;DHT22;5177;50.068;8.156;2023-05-07T14:43:36;27.40;71.60
10263;DHT22;5177;50.068;8.156;2023-05-07T14:46:02;27.50;74.40
10263;DHT22;5177;50.068;8.156;2023-05-07T14:48:27;27.50;81.80
10263;DHT22;5177;50.068;8.156;2023-05-07T14:50:53;28.00;78.50
10263;DHT22;5177;50.068;8.156;2023-05-07T14:53:18;28.10;79.70
10263;DHT22;5177;50.068;8.156;2023-05-07T14:55:44;27.90;81.50
10263;DHT22;5177;50.068;8.156;2023-05-07T14:58:10;27.50;84.00
10263;DHT22;5177;50.068;8.156;2023-05-07T15:00:36;27.20;86.00
10263;DHT22;5177;50.068;8.156;2023-05-07T15:03:06;26.80;89.40
10263;DHT22;5177;50.068;8.156;2023-05-07T15:05:32;26.40;91.30
10263;DHT22;5177;50.068;8.156;2023-05-07T15:07:58;26.00;92.90
10263;DHT22;5177;50.068;8.156;2023-05-07T15:10:23;25.90;92.70
10263;DHT22;5177;50.068;8.156;2023-05-07T15:12:49;25.70;94.60
10263;DHT22;5177;50.068;8.156;2023-05-07T15:15:14;25.60;95.20
10263;DHT22;5177;50.068;8.156;2023-05-07T15:17:40;25.30;97.90
10263;DHT22;5177;50.068;8.156;2023-05-07T15:20:06;25.20;97.90
10263;DHT22;5177;50.068;8.156;2023-05-07T15:22:32;24.90;99.60
10263;DHT22;5177;50.068;8.156;2023-05-07T15:24:57;24.80;99.90
10263;DHT22;5177;50.068;8.156;2023-05-07T15:27:24;24.60;99.90
10263;DHT22;5177;50.068;8.156;2023-05-07T15:29:49;24.60;99.90
10263;DHT22;5177;50.068;8.156;2023-05-07T15:32:15;24.50;99.90
10263;DHT22;5177;50.068;8.156;2023-05-07T15:34:40;24.40;99.90
10263;DHT22;5177;50.068;8.156;2023-05-07T15:37:06;24.20;99.90
10263;DHT22;5177;50.068;8.156;2023-05-07T15:39:32;24.10;99.90
10263;DHT22;5177;50.068;8.156;2023-05-07T15:41:57;24.00;99.90
10263;DHT22;5177;50.068;8.156;2023-05-07T15:44:23;24.00;99.90
10263;DHT22;5177;50.068;8.156;2023-05-07T15:46:52;23.90;99.90
10263;DHT22;5177;50.068;8.156;2023-05-07T15:49:18;23.70;99.90
10263;DHT22;5177;50.068;8.156;2023-05-07T15:51:43;23.60;99.90
10263;DHT22;5177;50.068;8.156;2023-05-07T15:54:09;23.60;99.90
10263;DHT22;5177;50.068;8.156;2023-05-07T15:56:35;23.50;99.90